Latest Weather Observations for Thargomindah

IDQ60801

Issued at 12:35 pm EST Friday 18 April 2014 (issued every 30 minutes, with the page automatically refreshed every 10 minutes)

About weather observations | Map of weather stations | Latest weather observations for QLD | Other Formats
Station Details ID: 045025 Name: THARGOMINDAH AIRPORT Lat: -27.99 Lon: 143.81 Height: 130.89 m
Data from the previous 72 hours. | See also: Recent months at Thargomindah
Date/Time
EST
Temp
°C
App
Temp
°C
Dew
Point
Rel
Hum
%
Delta-T
°C
Wind Press
QNH
hPa
Press
MSL
hPa
Rain
since 9 am
mm
Dir
 
Spd
km/h
Gust
km/h
Spd
kts
Gust
kts
18/12:30pm 27.1 22.5 1.5 19 12.3 S 15 20 8 11 1019.0 - 0.0
18/12:00pm 26.7 21.7 1.2 19 12.2 SW 17 35 9 19 1019.5 1018.9 0.0
18/11:30am 26.2 21.3 2.2 21 11.7 S 17 20 9 11 1019.9 - 0.0
18/11:00am 25.7 22.5 3.0 23 11.2 S 9 15 5 8 1020.2 - 0.0
18/10:30am 25.1 22.5 4.3 26 10.4 SE 7 17 4 9 1020.4 - 0.0
18/10:00am 24.2 21.2 4.0 27 10.0 SE 9 13 5 7 1020.7 - 0.0
18/09:30am 23.0 20.1 4.5 30 9.2 SE 9 13 5 7 1020.7 - 0.0
18/09:00am 21.4 18.5 4.5 33 8.3 SE 9 13 5 7 1020.5 1019.9 0.0
18/08:30am 19.6 16.4 3.3 34 7.7 SSE 9 15 5 8 1020.3 - 0.0
18/08:00am 17.4 14.8 4.0 41 6.3 SSE 7 11 4 6 1020.0 - 0.0
18/07:30am 14.9 12.4 3.7 47 5.2 S 6 7 3 4 1019.9 - 0.0
18/07:00am 13.5 10.4 3.6 51 4.5 S 9 9 5 5 1019.7 - 0.0
18/06:30am 13.9 10.8 3.4 49 4.8 SSE 9 9 5 5 1019.4 - 0.0
18/06:00am 14.3 11.2 3.5 48 4.9 SSE 9 11 5 6 1019.3 1018.7 0.0
18/05:30am 14.7 11.5 3.2 46 5.2 SE 9 9 5 5 1019.3 - 0.0
18/05:00am 14.8 11.6 3.0 45 5.3 SE 9 11 5 6 1019.3 - 0.0
18/04:30am 14.9 11.7 2.8 44 5.5 SSE 9 11 5 6 1019.2 - 0.0
18/04:00am 15.2 11.5 2.4 42 5.7 SSE 11 11 6 6 1019.2 - 0.0
18/03:30am 15.5 11.8 2.3 41 5.9 SSE 11 11 6 6 1019.2 - 0.0
18/03:00am 15.8 12.1 2.2 40 6.1 SSE 11 11 6 6 1019.3 1018.7 0.0
18/02:30am 16.2 12.9 2.6 40 6.2 SSE 9 9 5 5 1019.3 - 0.0
18/02:00am 16.1 13.0 3.5 43 5.8 S 9 9 5 5 1019.4 - 0.0
18/01:30am 15.5 12.7 3.3 44 5.6 SE 7 9 4 5 1019.7 - 0.0
18/01:00am 15.6 13.0 3.4 44 5.6 S 6 7 3 4 1019.7 - 0.0
18/12:30am 16.4 13.7 2.4 39 6.3 SSW 6 6 3 3 1019.8 - 0.0
18/12:00am 17.1 14.1 2.3 37 6.7 SSW 7 9 4 5 1020.0 1019.4 0.0
 
Date/Time
EST
Temp
°C
App
Temp
°C
Dew
Point
Rel
Hum
%
Delta-T
°C
Wind Press
QNH
hPa
Press
MSL
hPa
Rain
since 9 am
mm
Dir
 
Spd
km/h
Gust
km/h
Spd
kts
Gust
kts
17/11:30pm 18.2 15.0 2.9 36 7.1 S 9 11 5 6 1020.0 - 0.0
17/11:00pm 18.9 15.6 2.7 34 7.5 S 9 13 5 7 1020.1 - 0.0
17/10:30pm 18.4 15.2 3.1 36 7.1 S 9 13 5 7 1020.0 - 0.0
17/10:00pm 20.1 17.2 2.5 31 8.2 SSE 7 9 4 5 1020.0 - 0.0
17/09:30pm 20.8 17.4 2.1 29 8.7 SE 9 11 5 6 1019.9 - 0.0
17/09:00pm 21.2 17.5 2.5 29 8.8 SSE 11 11 6 6 1019.8 1019.2 0.0
17/08:30pm 22.2 18.5 2.3 27 9.4 SE 11 13 6 7 1019.5 - 0.0
17/08:00pm 21.9 18.5 2.1 27 9.3 SE 9 11 5 6 1019.2 - 0.0
17/07:30pm 22.7 19.1 2.8 27 9.5 S 11 11 6 6 1018.9 - 0.0
17/07:00pm 24.0 20.9 1.6 23 10.6 SSE 7 9 4 5 1018.6 - 0.0
17/06:30pm 25.1 21.7 1.9 22 11.1 SSE 9 11 5 6 1018.3 - 0.0
17/06:00pm 26.4 22.1 0.9 19 12.1 S 13 17 7 9 1018.1 1017.4 0.0
17/05:30pm 27.5 22.6 -0.5 16 13.1 S 15 20 8 11 1018.0 - 0.0
17/05:00pm 27.8 22.0 -0.3 16 13.2 SSW 20 26 11 14 1017.8 - 0.0
17/04:30pm 27.9 23.8 -0.2 16 13.2 S 11 19 6 10 1017.8 - 0.0
17/04:00pm 28.7 23.3 1.3 17 13.3 SSW 19 26 10 14 1017.7 - 0.0
17/03:30pm 28.2 23.1 0.9 17 13.2 S 17 24 9 13 1017.8 - 0.0
17/03:00pm 27.9 23.7 1.4 18 12.8 SSE 13 20 7 11 1017.9 1017.2 0.0
17/02:30pm 27.6 22.6 1.2 18 12.7 S 17 26 9 14 1018.2 - 0.0
17/02:00pm 27.4 22.5 1.8 19 12.5 S 17 24 9 13 1018.6 - 0.0
17/01:30pm 26.9 22.8 2.1 20 12.1 SE 13 22 7 12 1018.7 - 0.0
17/01:00pm 26.6 23.2 3.8 23 11.4 E 11 19 6 10 1019.0 - 0.0
17/12:30pm 26.0 23.2 5.0 26 10.7 SE 9 20 5 11 1019.7 - 0.0
17/12:00pm 25.8 22.6 4.9 26 10.6 SSE 11 17 6 9 1020.4 1019.8 0.0
17/11:30am 24.9 21.5 4.1 26 10.4 ESE 11 20 6 11 1020.9 - 0.0
17/11:00am 25.1 22.5 6.3 30 9.8 E 9 19 5 10 1021.0 - 0.0
17/10:30am 24.2 21.5 7.4 34 8.9 E 11 17 6 9 1021.2 - 0.0
17/10:00am 23.7 21.2 8.2 37 8.3 E 11 15 6 8 1021.3 - 0.0
17/09:30am 22.7 19.7 7.7 38 7.9 E 13 22 7 12 1021.2 - 0.0
17/09:00am 21.5 19.0 8.1 42 7.0 E 11 15 6 8 1021.0 1020.4 0.0
17/08:30am 19.3 16.9 6.8 44 6.3 SE 9 13 5 7 1020.8 - 0.0
17/08:00am 17.6 15.1 6.5 48 5.5 ESE 9 15 5 8 1020.5 - 0.0
17/07:30am 15.8 13.2 6.3 53 4.6 SE 9 13 5 7 1020.3 - 0.0
17/07:00am 14.3 12.1 6.2 58 3.9 SSE 7 9 4 5 1020.0 - 0.0
17/06:30am 14.2 11.6 6.1 58 3.9 SSE 9 11 5 6 1019.6 - 0.0
17/06:00am 14.7 12.0 5.8 55 4.3 SSE 9 13 5 7 1019.2 1018.6 0.0
17/05:30am 14.8 11.8 5.9 55 4.3 SSE 11 11 6 6 1018.9 - 0.0
17/05:00am 14.9 12.2 5.7 54 4.4 S 9 11 5 6 1018.8 - 0.0
17/04:30am 15.4 12.7 5.6 52 4.7 SSE 9 9 5 5 1018.7 - 0.0
17/04:00am 15.8 13.1 5.4 50 5.0 SSE 9 11 5 6 1018.6 - 0.0
17/03:30am 16.5 13.3 5.2 47 5.4 SSE 11 13 6 7 1018.4 - 0.0
17/03:00am 16.9 13.4 5.5 47 5.5 SSE 13 15 7 8 1018.5 1017.8 0.0
17/02:30am 16.4 12.9 5.4 48 5.3 S 13 13 7 7 1018.5 - 0.0
17/02:00am 16.8 13.6 5.1 46 5.6 SSE 11 13 6 7 1018.5 - 0.0
17/01:30am 17.4 14.2 5.0 44 6.0 SSE 11 13 6 7 1018.6 - 0.0
17/01:00am 17.6 14.4 5.2 44 6.0 SSE 11 15 6 8 1018.8 - 0.0
17/12:30am 17.7 14.5 5.3 44 6.0 SSE 11 13 6 7 1018.9 - 0.0
17/12:00am 17.5 14.3 5.1 44 6.0 S 11 11 6 6 1019.0 1018.3 0.0
 
Date/Time
EST
Temp
°C
App
Temp
°C
Dew
Point
Rel
Hum
%
Delta-T
°C
Wind Press
QNH
hPa
Press
MSL
hPa
Rain
since 9 am
mm
Dir
 
Spd
km/h
Gust
km/h
Spd
kts
Gust
kts
16/11:30pm 18.7 15.4 4.8 40 6.7 SSE 11 13 6 7 1019.1 - 0.0
16/11:00pm 19.1 15.6 5.6 41 6.7 SSE 13 17 7 9 1019.2 - 0.0
16/10:30pm 18.7 16.0 5.5 42 6.5 S 9 9 5 5 1019.1 - 0.0
16/10:00pm 19.4 16.6 5.1 39 7.0 S 9 9 5 5 1018.9 - 0.0
16/09:30pm 19.8 16.8 4.3 36 7.5 S 9 11 5 6 1018.7 - 0.0
16/09:00pm 21.4 18.5 4.5 33 8.3 SE 9 11 5 6 1018.4 1017.7 0.0
16/08:30pm 21.3 18.4 4.4 33 8.3 S 9 11 5 6 1018.1 - 0.0
16/08:00pm 22.0 19.0 4.1 31 8.8 S 9 11 5 6 1017.8 - 0.0
16/07:30pm 23.3 19.9 3.8 28 9.6 SSE 11 13 6 7 1017.5 - 0.0
16/07:00pm 23.4 20.4 3.9 28 9.6 S 9 11 5 6 1017.1 - 0.0
16/06:30pm 24.5 21.8 3.8 26 10.2 S 7 9 4 5 1016.7 - 0.0
16/06:00pm 25.9 21.9 2.6 22 11.4 S 13 19 7 10 1016.4 1015.7 0.0
16/05:30pm 26.7 21.5 2.6 21 11.8 S 19 22 10 12 1016.2 - 0.0
16/05:00pm 27.0 22.4 3.5 22 11.8 SE 17 22 9 12 1016.0 - 0.0
16/04:30pm 27.6 22.7 4.0 22 12.0 S 19 26 10 14 1015.6 - 0.0
16/04:00pm 27.4 22.3 3.2 21 12.1 SSE 19 26 10 14 1015.8 - 0.0
16/03:30pm 27.4 22.2 3.8 22 11.9 SSE 20 33 11 18 1016.1 - 0.0
16/03:00pm 28.1 23.2 5.0 23 11.9 S 20 32 11 17 1016.3 1015.6 0.0
16/02:30pm 26.9 21.5 4.6 24 11.4 S 22 32 12 17 1016.6 - 0.0
16/02:00pm 26.9 22.2 5.2 25 11.2 S 19 28 10 15 1016.9 - 0.0
16/01:30pm 26.6 22.1 6.1 27 10.7 S 19 24 10 13 1017.2 - 0.0
16/01:00pm 25.9 21.3 5.5 27 10.5 SSW 19 22 10 12 1017.7 - 0.0
16/12:30pm 25.9 22.1 6.0 28 10.3 SSW 15 26 8 14 1018.3 - 0.0
16/12:00pm 25.3 20.8 4.4 26 10.5 SSW 17 32 9 17 1018.6 1017.9 0.0
16/11:30am 24.9 21.9 6.1 30 9.7 S 11 26 6 14 1018.9 - 0.0
16/11:00am 24.6 21.5 5.4 29 9.8 SSE 11 15 6 8 1019.2 - 0.0
16/10:30am 24.1 20.8 6.4 32 9.2 SE 13 20 7 11 1019.5 - 0.0
16/10:00am 23.4 20.2 6.7 34 8.7 SE 13 19 7 10 1019.5 - 0.0
16/09:30am 22.4 19.4 7.8 39 7.7 ESE 13 17 7 9 1019.4 - 0.0
16/09:00am 20.7 17.9 8.4 45 6.5 SE 13 17 7 9 1019.3 1018.7 0.0
16/08:30am 19.0 16.1 8.1 49 5.6 SE 13 17 7 9 1019.1 - 0.0
16/08:00am 17.5 14.8 7.3 51 5.1 SSE 11 15 6 8 1018.8 - 0.0
16/07:30am 16.0 13.6 7.0 55 4.5 SSE 9 11 5 6 1018.4 - 0.0
16/07:00am 15.1 13.1 6.9 58 4.0 SSE 7 9 4 5 1018.1 - 0.0
16/06:30am 15.2 12.8 7.0 58 4.1 SSE 9 11 5 6 1017.8 - 0.0
16/06:00am 15.5 13.1 7.0 57 4.2 SSE 9 11 5 6 1017.8 1017.1 0.0
16/05:30am 15.6 13.6 6.9 56 4.3 S 7 9 4 5 1017.6 - 0.0
16/05:00am 16.3 14.2 6.7 53 4.7 SSE 7 11 4 6 1017.2 - 0.0
16/04:30am 17.1 14.3 6.9 51 5.1 SSE 11 15 6 8 1017.2 - 0.0
16/04:00am 17.6 14.4 6.8 49 5.4 SSE 13 17 7 9 1017.1 - 0.0
16/03:30am 17.7 14.9 6.9 49 5.4 S 11 15 6 8 1017.1 - 0.0
16/03:00am 18.0 15.2 6.8 48 5.6 SSE 11 15 6 8 1016.9 1016.2 0.0
16/02:30am 18.1 14.8 6.6 47 5.7 SSE 13 15 7 8 1016.9 - 0.0
16/02:00am 18.1 15.2 6.3 46 5.9 SSE 11 15 6 8 1017.3 - 0.0
16/01:30am 18.2 15.2 6.1 45 6.0 SSE 11 11 6 6 1017.6 - 0.0
16/01:00am 18.9 16.3 6.1 43 6.4 SSE 9 11 5 6 1017.7 - 0.0
16/12:30am 19.5 16.5 5.9 41 6.8 SSE 11 13 6 7 1017.7 - 0.0
16/12:00am 20.1 17.0 5.7 39 7.2 S 11 13 6 7 1017.9 1017.2 0.0
 
Date/Time
EST
Temp
°C
App
Temp
°C
Dew
Point
Rel
Hum
%
Delta-T
°C
Wind Press
QNH
hPa
Press
MSL
hPa
Rain
since 9 am
mm
Dir
 
Spd
km/h
Gust
km/h
Spd
kts
Gust
kts
15/11:30pm 20.8 17.7 5.6 37 7.6 SSE 11 15 6 8 1017.9 - 0.0
15/11:00pm 21.5 18.0 5.4 35 8.0 SSE 13 17 7 9 1017.9 - 0.0
15/10:30pm 22.1 18.6 5.5 34 8.3 SSE 13 17 7 9 1017.8 - 0.0
15/10:00pm 22.1 18.6 5.5 34 8.3 S 13 15 7 8 1017.6 - 0.0
15/09:30pm 22.3 18.8 5.3 33 8.5 S 13 17 7 9 1017.4 - 0.0
15/09:00pm 22.9 19.4 5.3 32 8.8 S 13 15 7 8 1017.0 1016.3 0.0
15/08:30pm 23.4 20.2 5.3 31 9.1 S 11 13 6 7 1016.6 - 0.0
15/08:00pm 24.4 20.6 5.7 30 9.6 S 15 20 8 11 1016.2 - 0.0
15/07:30pm 25.1 20.9 5.8 29 9.9 S 17 22 9 12 1015.7 - 0.0
15/07:00pm 25.4 22.0 6.1 29 10.0 S 13 15 7 8 1015.4 - 0.0
15/06:30pm 26.3 22.6 6.3 28 10.5 S 15 20 8 11 1015.2 - 0.0
15/06:00pm 27.1 23.0 6.0 26 11.0 S 17 22 9 12 1014.9 1014.3 0.0
15/05:30pm 27.9 24.0 5.5 24 11.7 S 15 24 8 13 1014.5 - 0.0
15/05:00pm 28.3 24.1 5.8 24 11.8 S 17 32 9 17 1014.5 - 0.0
15/04:30pm 28.3 24.0 5.2 23 12.0 S 17 28 9 15 1014.3 - 0.0
15/04:00pm 28.9 25.5 5.7 23 12.2 S 13 24 7 13 1014.4 - 0.0
15/03:30pm 28.6 24.4 5.5 23 12.1 S 17 22 9 12 1014.4 - 0.0
15/03:00pm 28.9 24.1 5.7 23 12.2 S 20 26 11 14 1014.5 1013.9 0.0
15/02:30pm 28.8 25.5 6.2 24 12.0 S 13 20 7 11 1014.7 - 0.0
15/02:00pm 28.2 25.8 6.9 26 11.4 SE 9 15 5 8 1014.8 - 0.0
15/01:30pm 28.5 24.6 7.1 26 11.5 S 17 24 9 13 1015.0 - 0.0
15/01:00pm 27.6 23.8 7.5 28 10.8 S 17 20 9 11 1015.5 - 0.0

Other Formats:

Comma delimited format used in spreadsheet applications
http://www.bom.gov.au/fwo/IDQ60801/IDQ60801.95492.axf

JavaScript Object Notation format (JSON) in row-major order
http://www.bom.gov.au/fwo/IDQ60801/IDQ60801.95492.json